Great Ocean — 3FDA5 — position and weather

sailwx.info

Track history (hours):
 
Tides and Currents Weather Stations Pressure Air Temp Water Temp Dewpoint Dewpoint Depression Visibility Wind Speed Wind Dir Waves Ship Positions

Great Ocean

Last reported at 2014-Nov-19 17:32 UTC. Time now 2014-Nov-20 20:59 UTC.
Position S 36°23' E 175°09'.

Length 180 m; draft 6.3 m.

Type: Cargo ship. MMSI: 371452000.

Date/timePositionNaut miles runAvg speedWind from/ knotsBaromVisibWave heightAir tempDewpointWater temp
2014-Nov-19 17:32S 36°23' E 175°09'4 3.6
2014-Nov-19 16:33S 36°20' E 175°09'0 0.4
2014-Nov-19 15:31S 36°20' E 175°10'2 1.9
2014-Nov-19 14:33S 36°22' E 175°09'2 1.8
2014-Nov-19 13:33S 36°24' E 175°08'2 2.4
2014-Nov-19 12:33S 36°26' E 175°07'1312.6
2014-Nov-19 11:33S 36°36' E 174°58'1312.8
2014-Nov-19 10:33S 36°46' E 174°49'4 4.2
2014-Nov-19 09:31S 36°51' E 174°47'0 0.0
2014-Nov-19 08:31S 36°51' E 174°47'0 0.0
2014-Nov-19 07:31S 36°51' E 174°47'0 0.0
2014-Nov-19 06:31S 36°51' E 174°47'0 0.0
2014-Nov-19 05:31S 36°51' E 174°47'0 0.0
2014-Nov-19 04:31S 36°51' E 174°47'0 0.0
2014-Nov-19 03:31S 36°51' E 174°47'0 0.0
2014-Nov-19 02:31S 36°51' E 174°47'0 0.0
2014-Nov-19 01:31S 36°51' E 174°47'0 0.0
2014-Nov-19 00:31S 36°51' E 174°47'0 0.0
2014-Nov-18 23:31S 36°51' E 174°47'0 0.0
2014-Nov-18 22:31S 36°51' E 174°47'0 0.0
2014-Nov-18 21:31S 36°51' E 174°47'0 0.0
2014-Nov-18 20:31S 36°51' E 174°47'0 0.0
2014-Nov-18 19:31S 36°51' E 174°47'0 0.0
2014-Nov-18 18:31S 36°51' E 174°47'0 0.0
2014-Nov-18 17:31S 36°51' E 174°47'0 0.0
2014-Nov-18 16:31S 36°51' E 174°47'0 0.0
2014-Nov-18 15:31S 36°51' E 174°47'0 0.0
2014-Nov-18 14:31S 36°51' E 174°47'0 0.0
2014-Nov-18 13:31S 36°51' E 174°47'0 0.0
2014-Nov-18 12:31S 36°51' E 174°47'0 0.0
2014-Nov-18 11:31S 36°51' E 174°47'0 0.0
2014-Nov-18 10:31S 36°51' E 174°47'0 0.0
2014-Nov-18 09:31S 36°51' E 174°47'0 0.0
2014-Nov-18 08:31S 36°51' E 174°47'0 0.0
2014-Nov-18 07:31S 36°51' E 174°47'0 0.0
2014-Nov-18 06:31S 36°51' E 174°47'0 0.0
2014-Nov-18 05:31S 36°51' E 174°47'0 0.0
2014-Nov-18 04:31S 36°51' E 174°47'0 0.0
2014-Nov-18 03:31S 36°51' E 174°47'0 0.0
2014-Nov-18 02:31S 36°51' E 174°47'0 0.0
2014-Nov-18 01:31S 36°51' E 174°47'0 0.0
2014-Nov-18 00:31S 36°51' E 174°47'0 0.0
2014-Nov-17 23:31S 36°51' E 174°47'0 0.0
2014-Nov-17 22:31S 36°51' E 174°47'0 0.0
2014-Nov-17 21:31S 36°51' E 174°47'0 0.0
2014-Nov-17 20:31S 36°51' E 174°47'0 0.0
2014-Nov-17 19:31S 36°51' E 174°47'0 0.0
2014-Nov-17 18:31S 36°51' E 174°47'0 0.0
2014-Nov-17 17:31S 36°51' E 174°47'0 0.0
2014-Nov-17 16:31S 36°51' E 174°47'0 0.0
2014-Nov-17 15:31S 36°51' E 174°47'2 2.4
2014-Nov-17 14:33S 36°50' E 174°49'8 8.5
2014-Nov-17 13:33S 36°42' E 174°53'9 8.9
2014-Nov-17 12:33S 36°34' E 174°58'1111.3
2014-Nov-17 11:33S 36°23' E 174°58'  
2014-Nov-13 01:32S 24°51' E 154°18'9812.1
2014-Nov-12 17:26S 24°04' E 152°43'  
Track history (hours):
 
Tides and Currents Weather Stations Pressure Air Temp Water Temp Dewpoint Dewpoint Depression Visibility Wind Speed Wind Dir Waves Ship Positions

Great Ocean

Last reported at 2014-Nov-19 17:32 UTC. Time now 2014-Nov-20 20:59 UTC.
Position S 36°23' E 175°09'.

Length 180 m; draft 6.3 m.

Type: Cargo ship. MMSI: 371452000.

Date/timePositionNaut miles runAvg speedWind from/ knotsBaromVisibWave heightAir tempDewpointWater temp
2014-Nov-19 17:32S 36°23' E 175°09'4 3.6
2014-Nov-19 16:33S 36°20' E 175°09'0 0.4
2014-Nov-19 15:31S 36°20' E 175°10'2 1.9
2014-Nov-19 14:33S 36°22' E 175°09'2 1.8
2014-Nov-19 13:33S 36°24' E 175°08'2 2.4
2014-Nov-19 12:33S 36°26' E 175°07'1312.6
2014-Nov-19 11:33S 36°36' E 174°58'1312.8
2014-Nov-19 10:33S 36°46' E 174°49'4 4.2
2014-Nov-19 09:31S 36°51' E 174°47'0 0.0
2014-Nov-19 08:31S 36°51' E 174°47'0 0.0
2014-Nov-19 07:31S 36°51' E 174°47'0 0.0
2014-Nov-19 06:31S 36°51' E 174°47'0 0.0
2014-Nov-19 05:31S 36°51' E 174°47'0 0.0
2014-Nov-19 04:31S 36°51' E 174°47'0 0.0
2014-Nov-19 03:31S 36°51' E 174°47'0 0.0
2014-Nov-19 02:31S 36°51' E 174°47'0 0.0
2014-Nov-19 01:31S 36°51' E 174°47'0 0.0
2014-Nov-19 00:31S 36°51' E 174°47'0 0.0
2014-Nov-18 23:31S 36°51' E 174°47'0 0.0
2014-Nov-18 22:31S 36°51' E 174°47'0 0.0
2014-Nov-18 21:31S 36°51' E 174°47'0 0.0
2014-Nov-18 20:31S 36°51' E 174°47'0 0.0
2014-Nov-18 19:31S 36°51' E 174°47'0 0.0
2014-Nov-18 18:31S 36°51' E 174°47'0 0.0
2014-Nov-18 17:31S 36°51' E 174°47'0 0.0
2014-Nov-18 16:31S 36°51' E 174°47'0 0.0
2014-Nov-18 15:31S 36°51' E 174°47'0 0.0
2014-Nov-18 14:31S 36°51' E 174°47'0 0.0
2014-Nov-18 13:31S 36°51' E 174°47'0 0.0
2014-Nov-18 12:31S 36°51' E 174°47'0 0.0
2014-Nov-18 11:31S 36°51' E 174°47'0 0.0
2014-Nov-18 10:31S 36°51' E 174°47'0 0.0
2014-Nov-18 09:31S 36°51' E 174°47'0 0.0
2014-Nov-18 08:31S 36°51' E 174°47'0 0.0
2014-Nov-18 07:31S 36°51' E 174°47'0 0.0
2014-Nov-18 06:31S 36°51' E 174°47'0 0.0
2014-Nov-18 05:31S 36°51' E 174°47'0 0.0
2014-Nov-18 04:31S 36°51' E 174°47'0 0.0
2014-Nov-18 03:31S 36°51' E 174°47'0 0.0
2014-Nov-18 02:31S 36°51' E 174°47'0 0.0
2014-Nov-18 01:31S 36°51' E 174°47'0 0.0
2014-Nov-18 00:31S 36°51' E 174°47'0 0.0
2014-Nov-17 23:31S 36°51' E 174°47'0 0.0
2014-Nov-17 22:31S 36°51' E 174°47'0 0.0
2014-Nov-17 21:31S 36°51' E 174°47'0 0.0
2014-Nov-17 20:31S 36°51' E 174°47'0 0.0
2014-Nov-17 19:31S 36°51' E 174°47'0 0.0
2014-Nov-17 18:31S 36°51' E 174°47'0 0.0
2014-Nov-17 17:31S 36°51' E 174°47'0 0.0
2014-Nov-17 16:31S 36°51' E 174°47'0 0.0
2014-Nov-17 15:31S 36°51' E 174°47'2 2.4
2014-Nov-17 14:33S 36°50' E 174°49'8 8.5
2014-Nov-17 13:33S 36°42' E 174°53'9 8.9
2014-Nov-17 12:33S 36°34' E 174°58'1111.3
2014-Nov-17 11:33S 36°23' E 174°58'  
2014-Nov-13 01:32S 24°51' E 154°18'9812.1
2014-Nov-12 17:26S 24°04' E 152°43'  

Dump ship's entire track history